createdAt,value
2019-02-15T00:01:20.671Z,64.78
2019-02-15T00:03:50.987Z,64.75
2019-02-15T00:06:21.296Z,64.91
2019-02-15T00:08:51.661Z,64.64
2019-02-15T00:11:21.857Z,64.76
2019-02-15T00:13:52.128Z,64.93
2019-02-15T00:16:22.336Z,64.97
2019-02-15T00:19:06.956Z,64.87
2019-02-15T00:21:41.981Z,64.85
2019-02-15T00:24:12.168Z,64.82
2019-02-15T00:26:42.337Z,65.02
2019-02-15T00:29:13.453Z,64.99
2019-02-15T00:31:43.695Z,65.06
2019-02-15T00:34:14.341Z,65.21
2019-02-15T00:36:44.609Z,65.30
2019-02-15T00:39:14.772Z,65.30
2019-02-15T00:41:45.045Z,65.17
2019-02-15T00:44:15.215Z,65.15
2019-02-15T00:47:19.765Z,65.19
2019-02-15T00:50:11.033Z,65.33
2019-02-15T00:52:49.575Z,65.20
2019-02-15T00:55:41.450Z,65.00
2019-02-15T00:58:35.929Z,64.98
2019-02-15T01:01:34.353Z,65.59
2019-02-15T01:04:13.043Z,65.50
2019-02-15T01:06:50.824Z,65.62
2019-02-15T01:09:25.764Z,65.71
2019-02-15T01:12:01.827Z,65.68
2019-02-15T01:14:33.220Z,65.74
2019-02-15T01:17:04.370Z,65.80
2019-02-15T01:19:34.534Z,65.92
2019-02-15T01:22:04.650Z,65.97
2019-02-15T01:24:34.889Z,65.94
2019-02-15T01:27:26.756Z,65.77
2019-02-15T01:30:06.421Z,66.07
2019-02-15T01:32:51.168Z,66.03
2019-02-15T01:35:39.057Z,66.14
2019-02-15T01:38:23.765Z,66.44
2019-02-15T01:41:11.748Z,66.65
2019-02-15T01:43:58.773Z,66.46
2019-02-15T01:46:45.639Z,66.26
2019-02-15T01:49:15.817Z,66.41
2019-02-15T01:51:45.927Z,66.48
2019-02-15T01:54:16.065Z,66.46
2019-02-15T01:56:46.185Z,66.25
2019-02-15T01:59:16.337Z,66.54
2019-02-15T02:01:46.651Z,66.64
2019-02-15T02:04:16.873Z,66.41
2019-02-15T02:06:47.121Z,66.48
2019-02-15T02:09:18.057Z,66.60
2019-02-15T02:11:48.348Z,66.42
2019-02-15T02:14:18.568Z,66.57
2019-02-15T02:16:48.756Z,66.41
2019-02-15T02:19:18.890Z,66.35
2019-02-15T02:21:49.064Z,66.43
2019-02-15T02:24:19.230Z,66.44
2019-02-15T02:26:49.395Z,66.49
2019-02-15T02:29:19.560Z,66.47
2019-02-15T02:31:49.722Z,66.51
2019-02-15T02:34:19.947Z,66.57
2019-02-15T02:36:52.973Z,66.57
2019-02-15T02:39:23.676Z,66.72
2019-02-15T02:41:53.845Z,66.63
2019-02-15T02:44:24.012Z,66.60
2019-02-15T02:46:54.130Z,66.79
2019-02-15T02:49:24.438Z,66.77
2019-02-15T02:51:54.733Z,66.70
2019-02-15T02:54:24.843Z,66.83
2019-02-15T02:56:54.984Z,66.93
2019-02-15T02:59:25.461Z,66.83
2019-02-15T03:01:55.563Z,67.01
2019-02-15T03:04:28.090Z,67.36
2019-02-15T03:06:58.244Z,67.40
2019-02-15T03:09:29.497Z,67.27
2019-02-15T03:11:59.635Z,67.50
2019-02-15T03:14:29.778Z,67.35
2019-02-15T03:16:59.942Z,67.38
2019-02-15T03:19:30.106Z,67.19
2019-02-15T03:22:00.224Z,67.64
2019-02-15T03:24:30.345Z,67.54
2019-02-15T03:27:00.445Z,67.40
2019-02-15T03:29:30.587Z,67.51
2019-02-15T03:32:00.710Z,67.43
2019-02-15T03:34:30.827Z,67.51
2019-02-15T03:37:24.090Z,67.61
2019-02-15T03:40:00.535Z,67.66
2019-02-15T03:42:30.650Z,67.59
2019-02-15T03:45:00.870Z,67.71
2019-02-15T03:47:32.145Z,67.53
2019-02-15T03:50:04.698Z,67.61
2019-02-15T03:52:34.171Z,67.58
2019-02-15T03:55:04.685Z,67.72
2019-02-15T03:57:35.533Z,67.80
2019-02-15T04:00:07.092Z,67.60
2019-02-15T04:02:37.283Z,67.79
2019-02-15T04:05:07.502Z,67.55
2019-02-15T04:07:37.666Z,67.38
2019-02-15T04:10:08.941Z,67.52
2019-02-15T04:12:41.732Z,67.25
2019-02-15T04:15:11.849Z,67.39
2019-02-15T04:17:41.972Z,67.14
2019-02-15T04:20:12.117Z,66.89
2019-02-15T04:22:43.655Z,66.85
2019-02-15T04:25:25.195Z,66.71
2019-02-15T04:27:55.391Z,66.50
2019-02-15T04:30:25.535Z,66.67
2019-02-15T04:32:55.650Z,66.79
2019-02-15T04:35:25.825Z,66.88
2019-02-15T04:37:55.978Z,67.14
2019-02-15T04:40:29.829Z,67.13
2019-02-15T04:42:59.973Z,66.85
2019-02-15T04:45:30.073Z,67.03
2019-02-15T04:48:00.214Z,67.25
2019-02-15T04:50:30.393Z,67.20
2019-02-15T04:53:03.052Z,67.25
2019-02-15T04:55:32.364Z,67.38
2019-02-15T04:58:20.863Z,67.09
2019-02-15T05:00:51.021Z,67.13
2019-02-15T05:03:21.208Z,67.09
2019-02-15T05:05:51.377Z,67.14
2019-02-15T05:08:29.268Z,67.16
2019-02-15T05:11:02.937Z,66.98
2019-02-15T05:13:33.425Z,67.21
2019-02-15T05:16:03.648Z,67.01
2019-02-15T05:18:34.587Z,67.00
2019-02-15T05:21:06.961Z,66.84
2019-02-15T05:23:37.919Z,66.78
2019-02-15T05:26:10.573Z,66.67
2019-02-15T05:28:41.203Z,66.43
2019-02-15T05:31:11.410Z,66.44
2019-02-15T05:33:42.115Z,66.49
2019-02-15T05:36:18.622Z,66.15
2019-02-15T05:38:49.244Z,66.08
2019-02-15T05:41:19.441Z,65.73
2019-02-15T05:43:49.616Z,65.56
2019-02-15T05:46:20.017Z,65.46
2019-02-15T05:48:50.271Z,65.34
2019-02-15T05:51:20.371Z,65.30
2019-02-15T05:53:50.822Z,65.12
2019-02-15T05:56:21.132Z,65.00
2019-02-15T05:58:51.313Z,64.93
2019-02-15T06:01:22.962Z,64.93
2019-02-15T06:03:53.187Z,64.94
2019-02-15T06:06:23.567Z,64.84
2019-02-15T06:08:53.751Z,64.83
2019-02-15T06:11:23.994Z,64.87
2019-02-15T06:13:54.143Z,64.82
2019-02-15T06:16:24.340Z,64.95
2019-02-15T06:18:54.455Z,65.04
2019-02-15T06:21:24.682Z,65.02
2019-02-15T06:23:54.901Z,65.00
2019-02-15T06:26:25.160Z,64.91
2019-02-15T06:28:56.787Z,64.87
2019-02-15T06:31:26.936Z,65.28
2019-02-15T06:33:57.076Z,65.36
2019-02-15T06:36:31.157Z,65.37
2019-02-15T06:39:01.425Z,65.41
2019-02-15T06:41:33.021Z,65.40
2019-02-15T06:44:04.216Z,65.47
2019-02-15T06:46:34.326Z,65.60
2019-02-15T06:49:04.550Z,65.67
2019-02-15T06:51:34.791Z,65.53
2019-02-15T06:54:04.972Z,65.68
2019-02-15T06:56:35.130Z,65.42
2019-02-15T06:59:25.234Z,65.35
2019-02-15T07:02:11.562Z,65.27
2019-02-15T07:04:57.962Z,65.66
2019-02-15T07:07:28.260Z,65.60
2019-02-15T07:09:58.386Z,65.61
2019-02-15T07:12:30.010Z,65.68
2019-02-15T07:15:00.272Z,65.58
2019-02-15T07:17:30.398Z,65.69
2019-02-15T07:20:00.518Z,65.66
2019-02-15T07:22:30.695Z,65.87
2019-02-15T07:25:00.867Z,65.62
2019-02-15T07:27:33.354Z,65.58
2019-02-15T07:30:05.266Z,65.52
2019-02-15T07:32:35.569Z,65.28
2019-02-15T07:35:05.790Z,65.67
2019-02-15T07:37:36.034Z,65.25
2019-02-15T07:40:08.059Z,65.40
2019-02-15T07:42:38.460Z,64.99
2019-02-15T07:45:09.472Z,65.21
2019-02-15T07:47:39.978Z,64.63
2019-02-15T07:50:14.092Z,64.70
2019-02-15T07:52:44.246Z,64.17
2019-02-15T07:55:14.366Z,63.80
2019-02-15T07:57:44.540Z,63.61
2019-02-15T08:00:15.222Z,63.26
2019-02-15T08:02:46.182Z,62.86
2019-02-15T08:05:16.385Z,62.48
2019-02-15T08:07:46.543Z,62.12
2019-02-15T08:10:17.126Z,61.90
2019-02-15T08:12:47.296Z,61.81
2019-02-15T08:15:17.475Z,61.54
2019-02-15T08:17:47.935Z,61.20
2019-02-15T08:20:18.554Z,60.82
2019-02-15T08:22:48.705Z,60.42
2019-02-15T08:25:20.327Z,60.31
2019-02-15T08:27:50.579Z,60.07
2019-02-15T08:30:22.141Z,59.95
2019-02-15T08:32:53.167Z,59.35
2019-02-15T08:35:23.398Z,59.12
2019-02-15T08:37:53.505Z,58.78
2019-02-15T08:40:23.663Z,58.54
2019-02-15T08:42:56.002Z,58.08
2019-02-15T08:45:27.535Z,57.66
2019-02-15T08:47:57.671Z,57.76
2019-02-15T08:50:27.839Z,57.07
2019-02-15T08:52:58.062Z,56.76
2019-02-15T08:55:28.213Z,56.33
2019-02-15T08:57:58.356Z,56.21
2019-02-15T09:00:28.601Z,55.77
2019-02-15T09:02:58.747Z,55.89
2019-02-15T09:05:28.991Z,55.73
2019-02-15T09:07:59.575Z,55.40
2019-02-15T09:10:30.762Z,55.25
2019-02-15T09:13:02.733Z,54.62
2019-02-15T09:15:32.999Z,54.93
2019-02-15T09:18:03.125Z,54.73
2019-02-15T09:20:33.293Z,54.59
2019-02-15T09:23:03.443Z,54.45
2019-02-15T09:25:33.541Z,53.85
2019-02-15T09:28:21.530Z,53.92
2019-02-15T09:30:53.493Z,53.31
2019-02-15T09:33:31.600Z,52.87
2019-02-15T09:36:02.286Z,52.97
2019-02-15T09:38:32.430Z,52.70
2019-02-15T09:41:02.599Z,52.60
2019-02-15T09:43:33.893Z,52.42
2019-02-15T09:46:04.013Z,52.38
2019-02-15T09:48:35.157Z,52.04
2019-02-15T09:51:05.442Z,51.75
2019-02-15T09:53:35.621Z,51.64
2019-02-15T09:56:05.787Z,51.71
2019-02-15T09:58:35.975Z,51.38
2019-02-15T10:01:10.169Z,50.90
2019-02-15T10:03:40.439Z,51.31
2019-02-15T10:06:10.598Z,50.90
2019-02-15T10:08:40.717Z,50.98
2019-02-15T10:11:10.795Z,51.25
2019-02-15T10:13:40.979Z,50.66
2019-02-15T10:16:11.119Z,50.78
2019-02-15T10:18:41.315Z,50.13
2019-02-15T10:21:11.438Z,49.78
2019-02-15T10:23:41.557Z,49.57
2019-02-15T10:26:11.656Z,49.74
2019-02-15T10:28:45.015Z,49.35
2019-02-15T10:31:15.171Z,49.25
2019-02-15T10:33:45.323Z,48.95
2019-02-15T10:36:15.432Z,48.66
2019-02-15T10:38:45.792Z,48.17
2019-02-15T10:41:15.972Z,48.27
2019-02-15T10:43:48.262Z,47.07
2019-02-15T10:46:18.417Z,46.58
2019-02-15T10:48:48.598Z,46.27
2019-02-15T10:51:18.772Z,45.85
2019-02-15T10:53:48.888Z,44.71
2019-02-15T10:56:19.009Z,44.67
2019-02-15T10:58:49.217Z,44.46
2019-02-15T11:01:19.486Z,43.80
2019-02-15T11:03:50.327Z,43.38
2019-02-15T11:06:20.510Z,43.82
2019-02-15T11:08:50.653Z,43.19
2019-02-15T11:11:21.625Z,43.53
2019-02-15T11:13:51.980Z,43.53
2019-02-15T11:16:22.177Z,43.50
2019-02-15T11:18:52.316Z,43.74
2019-02-15T11:21:22.543Z,43.27
2019-02-15T11:23:52.772Z,43.21
2019-02-15T11:26:24.679Z,42.97
2019-02-15T11:28:55.424Z,42.89
2019-02-15T11:31:26.694Z,43.10
2019-02-15T11:33:56.978Z,43.16
2019-02-15T11:36:27.139Z,43.00
2019-02-15T11:38:58.086Z,43.15
2019-02-15T11:41:28.283Z,42.97
2019-02-15T11:43:59.501Z,43.14
2019-02-15T11:46:29.653Z,43.49
2019-02-15T11:48:59.824Z,44.18
2019-02-15T11:51:31.544Z,43.77
2019-02-15T11:54:01.675Z,43.33
2019-02-15T11:56:33.423Z,44.29
2019-02-15T11:59:03.809Z,43.16
2019-02-15T12:01:33.981Z,43.49
2019-02-15T12:04:05.022Z,42.84
2019-02-15T12:06:35.759Z,42.57
2019-02-15T12:09:06.905Z,41.93
2019-02-15T12:11:37.872Z,42.05
2019-02-15T12:14:08.024Z,42.17
2019-02-15T12:16:38.723Z,42.17
2019-02-15T12:19:08.937Z,41.61
2019-02-15T12:21:40.656Z,40.82
2019-02-15T12:24:10.743Z,40.86
2019-02-15T12:26:40.895Z,39.65
2019-02-15T12:29:11.066Z,39.20
2019-02-15T12:31:41.233Z,40.16
2019-02-15T12:34:11.404Z,40.15
2019-02-15T12:36:41.559Z,40.31
2019-02-15T12:39:14.127Z,40.16
2019-02-15T12:41:43.581Z,40.02
2019-02-15T12:44:13.743Z,39.86
2019-02-15T12:46:44.826Z,38.92
2019-02-15T12:49:15.392Z,38.70
2019-02-15T12:51:46.685Z,38.80
2019-02-15T12:54:16.853Z,38.74
2019-02-15T12:56:46.975Z,37.80
2019-02-15T12:59:18.632Z,38.08
2019-02-15T13:01:48.790Z,38.70
2019-02-15T13:04:43.934Z,38.92
2019-02-15T13:07:16.173Z,38.93
2019-02-15T13:09:46.481Z,38.27
2019-02-15T13:12:17.035Z,37.49
2019-02-15T13:14:47.237Z,37.99
2019-02-15T13:17:24.468Z,38.33
2019-02-15T13:19:49.951Z,38.53
2019-02-15T13:22:20.317Z,37.45
2019-02-15T13:24:51.783Z,37.24
2019-02-15T13:27:21.954Z,37.76
2019-02-15T13:29:54.545Z,38.14
2019-02-15T13:32:24.667Z,37.44
2019-02-15T13:34:56.099Z,37.24
2019-02-15T13:37:26.543Z,37.87
2019-02-15T13:39:56.740Z,37.16
2019-02-15T13:42:26.912Z,37.60
2019-02-15T13:44:57.203Z,36.22
2019-02-15T13:47:34.159Z,37.07
2019-02-15T13:49:59.225Z,37.50
2019-02-15T13:52:31.562Z,37.47
2019-02-15T13:55:02.900Z,37.64
2019-02-15T13:57:33.134Z,37.37
2019-02-15T14:00:03.422Z,36.39
2019-02-15T14:02:36.036Z,36.91
2019-02-15T14:05:06.657Z,37.86
2019-02-15T14:07:37.104Z,37.81
2019-02-15T14:10:08.789Z,37.20
2019-02-15T14:12:40.469Z,37.13
2019-02-15T14:15:10.690Z,37.21
2019-02-15T14:17:45.602Z,37.50
2019-02-15T14:20:14.543Z,37.55
2019-02-15T14:22:44.757Z,37.60
2019-02-15T14:25:15.015Z,37.42
2019-02-15T14:27:45.360Z,37.08
2019-02-15T14:30:15.610Z,37.57
2019-02-15T14:32:46.491Z,37.34
2019-02-15T14:35:17.335Z,38.11
2019-02-15T14:37:47.692Z,38.52
2019-02-15T14:40:17.865Z,37.58
2019-02-15T14:42:49.316Z,38.14
2019-02-15T14:45:19.908Z,38.40
2019-02-15T14:47:54.880Z,38.27
2019-02-15T14:50:22.041Z,38.39
2019-02-15T14:52:52.354Z,38.19
2019-02-15T14:55:32.453Z,38.21
2019-02-15T14:58:02.886Z,38.08
2019-02-15T15:00:33.214Z,37.95
2019-02-15T15:03:03.544Z,38.21
2019-02-15T15:05:34.817Z,38.70
2019-02-15T15:08:05.093Z,38.27
2019-02-15T15:10:35.364Z,38.15
2019-02-15T15:13:05.580Z,37.94
2019-02-15T15:15:36.183Z,38.35
2019-02-15T15:18:13.007Z,38.31
2019-02-15T15:20:49.057Z,38.34
2019-02-15T15:23:22.878Z,37.37
2019-02-15T15:25:53.228Z,37.79
2019-02-15T15:28:23.456Z,37.53
2019-02-15T15:30:54.648Z,37.72
2019-02-15T15:33:27.219Z,37.87
2019-02-15T15:35:59.061Z,37.70
2019-02-15T15:38:31.599Z,37.45
2019-02-15T15:41:01.738Z,38.13
2019-02-15T15:43:34.881Z,37.85
2019-02-15T15:46:05.216Z,38.74
2019-02-15T15:48:35.790Z,38.62
2019-02-15T15:51:05.997Z,39.03
2019-02-15T15:53:36.359Z,39.38
2019-02-15T15:56:07.549Z,39.74
2019-02-15T15:58:41.287Z,40.68
2019-02-15T16:01:11.667Z,41.55
2019-02-15T16:03:41.882Z,42.60
2019-02-15T16:06:13.262Z,42.85
2019-02-15T16:08:43.907Z,44.11
2019-02-15T16:11:14.239Z,44.75
2019-02-15T16:13:44.473Z,45.64
2019-02-15T16:16:15.570Z,46.08
2019-02-15T16:18:45.734Z,46.84
2019-02-15T16:21:16.551Z,47.24
2019-02-15T16:23:46.819Z,48.16
2019-02-15T16:26:17.415Z,48.35
2019-02-15T16:28:47.549Z,48.51
2019-02-15T16:31:17.865Z,49.06
2019-02-15T16:33:53.256Z,49.28
2019-02-15T16:36:23.417Z,49.60
2019-02-15T16:38:54.536Z,49.59
2019-02-15T16:41:24.773Z,50.05
2019-02-15T16:43:56.367Z,50.08
2019-02-15T16:46:27.077Z,50.31
2019-02-15T16:49:00.106Z,50.77
2019-02-15T16:51:33.282Z,50.72
2019-02-15T16:54:03.679Z,51.28
2019-02-15T16:56:34.081Z,51.82
2019-02-15T16:59:04.289Z,52.01
2019-02-15T17:01:37.105Z,52.32
2019-02-15T17:04:07.286Z,52.75
2019-02-15T17:06:37.531Z,53.12
2019-02-15T17:09:21.343Z,53.50
2019-02-15T17:11:51.602Z,53.50
2019-02-15T17:14:21.967Z,53.64
2019-02-15T17:16:52.208Z,53.82
2019-02-15T17:19:22.530Z,54.03
2019-02-15T17:21:52.752Z,54.37
2019-02-15T17:24:23.730Z,54.86
2019-02-15T17:26:53.848Z,54.88
2019-02-15T17:29:31.195Z,55.43
2019-02-15T17:32:02.572Z,56.11
2019-02-15T17:34:36.427Z,56.03
2019-02-15T17:37:06.719Z,56.08
2019-02-15T17:39:37.062Z,55.89
2019-02-15T17:42:07.324Z,55.88
2019-02-15T17:44:37.756Z,55.52
2019-02-15T17:47:08.029Z,55.10
2019-02-15T17:49:38.329Z,54.61
2019-02-15T17:52:17.500Z,54.15
2019-02-15T17:54:47.775Z,53.92
2019-02-15T17:57:19.216Z,54.18
2019-02-15T17:59:49.462Z,54.07
2019-02-15T18:02:19.765Z,54.04
2019-02-15T18:04:54.082Z,54.41
2019-02-15T18:07:30.138Z,54.34
2019-02-15T18:10:00.416Z,54.35
2019-02-15T18:12:30.846Z,54.61
2019-02-15T18:15:01.937Z,54.25
2019-02-15T18:17:32.523Z,54.62
2019-02-15T18:20:05.642Z,54.71
2019-02-15T18:22:38.391Z,54.73
2019-02-15T18:25:08.616Z,54.65
2019-02-15T18:27:38.798Z,54.77
2019-02-15T18:30:12.887Z,54.82
2019-02-15T18:32:43.244Z,54.94
2019-02-15T18:35:19.370Z,55.05
2019-02-15T18:37:49.588Z,54.99
2019-02-15T18:40:19.815Z,55.22
2019-02-15T18:42:50.136Z,55.57
2019-02-15T18:45:20.552Z,55.47
2019-02-15T18:47:50.972Z,55.72
2019-02-15T18:50:21.195Z,56.26
2019-02-15T18:52:59.175Z,55.97
2019-02-15T18:55:29.334Z,55.88
2019-02-15T18:57:59.643Z,56.01
2019-02-15T19:00:30.806Z,56.07
2019-02-15T19:03:01.050Z,56.63
2019-02-15T19:05:33.639Z,56.26
2019-02-15T19:08:03.852Z,56.39
2019-02-15T19:10:35.292Z,56.72
2019-02-15T19:13:05.431Z,56.66
2019-02-15T19:15:35.603Z,56.40
2019-02-15T19:18:06.366Z,56.28
2019-02-15T19:20:36.974Z,56.27
2019-02-15T19:23:11.387Z,56.19
2019-02-15T19:25:41.560Z,56.01
2019-02-15T19:28:14.113Z,55.78
2019-02-15T19:30:44.261Z,55.66
2019-02-15T19:33:14.537Z,55.44
2019-02-15T19:35:46.853Z,55.47
2019-02-15T19:38:16.972Z,55.82
2019-02-15T19:40:50.278Z,55.19
2019-02-15T19:43:20.681Z,55.20
2019-02-15T19:45:52.977Z,55.24
2019-02-15T19:48:23.243Z,55.62
2019-02-15T19:50:53.370Z,56.35
2019-02-15T19:53:23.666Z,56.52
2019-02-15T19:55:53.909Z,56.68
2019-02-15T19:58:26.001Z,56.54
2019-02-15T20:00:56.198Z,56.25
2019-02-15T20:03:26.641Z,55.75
2019-02-15T20:05:57.401Z,55.60
2019-02-15T20:08:27.569Z,55.62
2019-02-15T20:10:57.752Z,55.76
2019-02-15T20:13:28.061Z,55.79
2019-02-15T20:15:58.366Z,56.17
2019-02-15T20:18:33.440Z,56.31
2019-02-15T20:21:04.011Z,56.45
2019-02-15T20:23:38.916Z,56.50
2019-02-15T20:26:11.382Z,56.40
2019-02-15T20:28:42.077Z,56.57
2019-02-15T20:31:12.293Z,56.53
2019-02-15T20:33:42.525Z,56.64
2019-02-15T20:36:12.613Z,56.91
2019-02-15T20:38:42.836Z,57.13
2019-02-15T20:41:13.111Z,57.16
2019-02-15T20:43:43.450Z,57.42
2019-02-15T20:46:13.712Z,57.34
2019-02-15T20:48:47.121Z,57.25
2019-02-15T20:51:21.427Z,57.24
2019-02-15T20:53:52.278Z,56.79
2019-02-15T20:56:22.499Z,56.28
2019-02-15T20:58:53.875Z,55.66
2019-02-15T21:01:24.087Z,55.10
2019-02-15T21:03:54.233Z,55.46
2019-02-15T21:06:25.541Z,55.33
2019-02-15T21:08:56.212Z,54.59
2019-02-15T21:11:26.352Z,54.48
2019-02-15T21:13:56.617Z,54.39
2019-02-15T21:16:27.016Z,54.02
2019-02-15T21:18:57.159Z,53.82
2019-02-15T21:21:27.443Z,53.68
2019-02-15T21:23:57.625Z,53.66
2019-02-15T21:26:28.300Z,53.05
2019-02-15T21:28:58.557Z,53.00
2019-02-15T21:31:30.688Z,52.70
2019-02-15T21:34:01.004Z,52.76
2019-02-15T21:36:31.203Z,52.46
2019-02-15T21:39:01.439Z,52.42
2019-02-15T21:41:33.307Z,52.52
2019-02-15T21:44:03.482Z,52.26
2019-02-15T21:46:34.017Z,52.43
2019-02-15T21:49:04.236Z,52.44
2019-02-15T21:51:34.407Z,52.75
2019-02-15T21:54:17.163Z,52.74
2019-02-15T21:56:47.527Z,52.62
2019-02-15T21:59:17.892Z,52.68
2019-02-15T22:01:49.278Z,52.28
2019-02-15T22:04:20.959Z,52.30
2019-02-15T22:06:51.242Z,52.16
2019-02-15T22:09:21.535Z,52.06
2019-02-15T22:11:52.012Z,52.42
2019-02-15T22:14:22.466Z,52.16
2019-02-15T22:16:52.729Z,52.32
2019-02-15T22:19:23.365Z,52.21
2019-02-15T22:21:53.902Z,52.36
2019-02-15T22:24:24.326Z,52.02
2019-02-15T22:26:56.100Z,52.08
2019-02-15T22:29:26.473Z,52.16
2019-02-15T22:31:57.268Z,52.50
2019-02-15T22:34:27.512Z,52.40
2019-02-15T22:36:57.812Z,52.40
2019-02-15T22:39:28.101Z,52.58
2019-02-15T22:41:58.303Z,52.51
2019-02-15T22:44:28.751Z,52.44
2019-02-15T22:46:59.028Z,52.66
2019-02-15T22:49:29.399Z,52.68
2019-02-15T22:51:59.695Z,52.54
2019-02-15T22:54:29.904Z,52.64
2019-02-15T22:57:00.110Z,52.42
2019-02-15T22:59:30.631Z,52.65
2019-02-15T23:02:01.045Z,52.63
2019-02-15T23:04:31.340Z,52.64
2019-02-15T23:07:01.633Z,52.72
2019-02-15T23:09:31.914Z,52.76
2019-02-15T23:12:02.292Z,52.72
2019-02-15T23:14:32.697Z,52.86
2019-02-15T23:17:02.952Z,52.66
2019-02-15T23:19:33.887Z,52.43
2019-02-15T23:22:04.125Z,52.36
2019-02-15T23:24:34.460Z,52.22
2019-02-15T23:27:04.695Z,52.90
2019-02-15T23:29:35.026Z,52.23
2019-02-15T23:32:05.215Z,52.18
2019-02-15T23:34:35.623Z,51.88
2019-02-15T23:37:06.260Z,53.00
2019-02-15T23:39:36.495Z,51.82
2019-02-15T23:42:07.030Z,51.73
2019-02-15T23:44:37.372Z,51.89
2019-02-15T23:47:07.659Z,51.81
2019-02-15T23:49:38.267Z,52.00
2019-02-15T23:52:09.355Z,52.22
2019-02-15T23:54:40.205Z,52.42
2019-02-15T23:57:11.083Z,52.36
2019-02-15T23:59:41.954Z,52.49
